createdAt,value
2023-04-04T00:00:40.285Z,99184.25
2023-04-04T00:03:07.408Z,99182.56
2023-04-04T00:05:35.760Z,99183.41
2023-04-04T00:08:03.070Z,99183.41
2023-04-04T00:10:29.669Z,99178.22
2023-04-04T00:12:56.554Z,99185.16
2023-04-04T00:15:23.153Z,99180.00
2023-04-04T00:17:49.796Z,99183.47
2023-04-04T00:20:16.393Z,99181.72
2023-04-04T00:22:43.438Z,99185.19
2023-04-04T00:25:10.915Z,99183.50
2023-04-04T00:27:37.423Z,99182.66
2023-04-04T00:30:04.190Z,99174.06
2023-04-04T00:32:30.838Z,99179.19
2023-04-04T00:34:58.073Z,99176.63
2023-04-04T00:37:24.675Z,99172.34
2023-04-04T00:39:51.241Z,99175.81
2023-04-04T00:42:17.963Z,99177.53
2023-04-04T00:44:44.657Z,99174.13
2023-04-04T00:47:11.412Z,99179.25
2023-04-04T00:49:38.018Z,99179.28
2023-04-04T00:52:07.397Z,99178.44
2023-04-04T00:54:34.487Z,99172.38
2023-04-04T00:57:01.761Z,99173.28
2023-04-04T00:59:29.211Z,99172.41
2023-04-04T01:01:56.002Z,99171.53
2023-04-04T01:04:22.760Z,99177.59
2023-04-04T01:06:50.964Z,99177.59
2023-04-04T01:09:17.714Z,99169.84
2023-04-04T01:11:44.506Z,99177.59
2023-04-04T01:14:11.101Z,99169.84
2023-04-04T01:16:37.960Z,99172.41
2023-04-04T01:19:06.693Z,99168.09
2023-04-04T01:21:34.088Z,99169.84
2023-04-04T01:24:01.519Z,99174.16
2023-04-04T01:26:28.388Z,99169.00
2023-04-04T01:28:55.463Z,99169.03
2023-04-04T01:31:31.064Z,99171.59
2023-04-04T01:34:12.171Z,99163.84
2023-04-04T01:36:54.150Z,99162.13
2023-04-04T01:39:23.528Z,99169.03
2023-04-04T01:41:50.657Z,99163.91
2023-04-04T01:44:17.776Z,99170.78
2023-04-04T01:46:44.463Z,99169.06
2023-04-04T01:49:11.412Z,99166.47
2023-04-04T01:51:38.988Z,99170.78
2023-04-04T01:54:05.580Z,99170.81
2023-04-04T01:56:32.940Z,99166.53
2023-04-04T01:58:59.536Z,99163.09
2023-04-04T02:01:26.100Z,99163.94
2023-04-04T02:03:52.885Z,99162.22
2023-04-04T02:06:19.547Z,99160.47
2023-04-04T02:08:46.570Z,99165.66
2023-04-04T02:11:13.083Z,99162.25
2023-04-04T02:13:44.298Z,99161.38
2023-04-04T02:16:11.009Z,99160.50
2023-04-04T02:18:37.674Z,99160.50
2023-04-04T02:21:04.339Z,99163.97
2023-04-04T02:23:31.170Z,99163.94
2023-04-04T02:25:57.728Z,99160.53
2023-04-04T02:28:24.356Z,99162.25
2023-04-04T02:30:50.900Z,99162.25
2023-04-04T02:33:17.452Z,99160.50
2023-04-04T02:35:44.107Z,99153.63
2023-04-04T02:38:10.772Z,99160.50
2023-04-04T02:40:39.807Z,99151.06
2023-04-04T02:43:06.727Z,99150.22
2023-04-04T02:45:33.249Z,99163.97
2023-04-04T02:47:59.856Z,99155.38
2023-04-04T02:50:26.516Z,99160.56
2023-04-04T02:52:54.946Z,99159.69
2023-04-04T02:55:21.489Z,99162.25
2023-04-04T02:57:51.678Z,99159.66
2023-04-04T03:00:18.396Z,99158.81
2023-04-04T03:02:45.121Z,99163.13
2023-04-04T03:05:11.859Z,99164.84
2023-04-04T03:07:38.371Z,99160.53
2023-04-04T03:10:05.132Z,99163.13
2023-04-04T03:12:31.758Z,99162.25
2023-04-04T03:14:58.383Z,99162.25
2023-04-04T03:17:25.707Z,99160.50
2023-04-04T03:19:52.534Z,99165.69
2023-04-04T03:22:19.179Z,99165.69
2023-04-04T03:24:45.748Z,99161.38
2023-04-04T03:27:12.499Z,99158.81
2023-04-04T03:29:39.128Z,99162.22
2023-04-04T03:32:06.219Z,99162.22
2023-04-04T03:34:33.029Z,99157.06
2023-04-04T03:37:02.811Z,99166.50
2023-04-04T03:39:32.286Z,99165.66
2023-04-04T03:41:58.888Z,99170.84
2023-04-04T03:44:25.482Z,99166.53
2023-04-04T03:46:52.097Z,99171.69
2023-04-04T03:49:18.706Z,99176.00
2023-04-04T03:51:45.232Z,99174.28
2023-04-04T03:54:11.989Z,99174.25
2023-04-04T03:56:38.601Z,99177.72
2023-04-04T03:59:05.216Z,99176.84
2023-04-04T04:01:31.753Z,99173.41
2023-04-04T04:03:58.400Z,99172.56
2023-04-04T04:06:24.987Z,99172.53
2023-04-04T04:08:51.550Z,99174.28
2023-04-04T04:11:18.366Z,99175.97
2023-04-04T04:13:44.943Z,99176.84
2023-04-04T04:16:11.478Z,99175.97
2023-04-04T04:18:38.180Z,99175.97
2023-04-04T04:21:05.174Z,99169.97
2023-04-04T04:23:31.788Z,99171.66
2023-04-04T04:25:58.391Z,99175.09
2023-04-04T04:28:33.181Z,99177.72
2023-04-04T04:31:07.971Z,99170.81
2023-04-04T04:33:35.017Z,99169.09
2023-04-04T04:36:05.742Z,99177.69
2023-04-04T04:38:32.681Z,99180.25
2023-04-04T04:40:59.297Z,99169.09
2023-04-04T04:43:26.295Z,99171.66
2023-04-04T04:45:52.826Z,99177.69
2023-04-04T04:48:19.400Z,99174.25
2023-04-04T04:50:47.074Z,99184.56
2023-04-04T04:53:16.783Z,99188.00
2023-04-04T04:55:43.808Z,99175.06
2023-04-04T04:58:11.205Z,99182.81
2023-04-04T05:00:38.393Z,99184.53
2023-04-04T05:03:08.733Z,99187.09
2023-04-04T05:05:35.453Z,99182.75
2023-04-04T05:08:02.762Z,99176.72
2023-04-04T05:10:29.981Z,99175.81
2023-04-04T05:12:56.598Z,99175.75
2023-04-04T05:15:23.517Z,99170.56
2023-04-04T05:17:50.268Z,99163.63
2023-04-04T05:20:17.069Z,99164.47
2023-04-04T05:22:44.403Z,99162.72
2023-04-04T05:25:11.377Z,99163.56
2023-04-04T05:27:39.034Z,99165.25
2023-04-04T05:30:06.186Z,99164.38
2023-04-04T05:32:32.810Z,99162.63
2023-04-04T05:34:59.610Z,99161.75
2023-04-04T05:37:26.358Z,99171.28
2023-04-04T05:39:52.972Z,99165.22
2023-04-04T05:42:19.530Z,99168.69
2023-04-04T05:44:46.398Z,99175.66
2023-04-04T05:47:12.936Z,99169.66
2023-04-04T05:49:39.549Z,99169.63
2023-04-04T05:52:06.189Z,99169.63
2023-04-04T05:54:32.752Z,99176.50
2023-04-04T05:56:59.304Z,99168.75
2023-04-04T05:59:26.018Z,99168.75
2023-04-04T06:01:52.678Z,99171.34
2023-04-04T06:04:19.239Z,99168.75
2023-04-04T06:06:46.301Z,99166.09
2023-04-04T06:09:12.856Z,99160.94
2023-04-04T06:11:39.451Z,99170.44
2023-04-04T06:14:06.024Z,99171.28
2023-04-04T06:16:33.090Z,99171.25
2023-04-04T06:18:59.684Z,99170.34
2023-04-04T06:21:26.636Z,99174.63
2023-04-04T06:23:53.187Z,99173.75
2023-04-04T06:26:20.558Z,99172.84
2023-04-04T06:28:50.349Z,99170.19
2023-04-04T06:31:17.277Z,99171.84
2023-04-04T06:33:43.943Z,99166.59
2023-04-04T06:36:10.732Z,99172.50
2023-04-04T06:38:37.392Z,99170.63
2023-04-04T06:41:03.928Z,99171.25
2023-04-04T06:43:31.080Z,99169.38
2023-04-04T06:45:58.040Z,99170.91
2023-04-04T06:48:24.595Z,99167.31
2023-04-04T06:50:51.331Z,99168.84
2023-04-04T06:53:17.918Z,99170.41
2023-04-04T06:55:44.565Z,99170.34
2023-04-04T06:58:11.286Z,99168.53
2023-04-04T07:00:38.160Z,99169.22
2023-04-04T07:03:04.965Z,99175.19
2023-04-04T07:05:32.368Z,99168.16
2023-04-04T07:07:59.064Z,99174.94
2023-04-04T07:10:26.181Z,99176.53
2023-04-04T07:12:53.017Z,99174.72
2023-04-04T07:15:19.740Z,99178.13
2023-04-04T07:17:46.537Z,99177.97
2023-04-04T07:20:13.555Z,99178.53
2023-04-04T07:22:41.042Z,99176.59
2023-04-04T07:25:08.253Z,99171.19
2023-04-04T07:27:34.935Z,99178.78
2023-04-04T07:30:01.462Z,99184.56
2023-04-04T07:32:29.464Z,99169.56
2023-04-04T07:34:56.153Z,99177.97
2023-04-04T07:37:22.781Z,99175.13
2023-04-04T07:39:50.103Z,99183.78
2023-04-04T07:42:22.991Z,99176.00
2023-04-04T07:44:50.532Z,99175.03
2023-04-04T07:47:17.730Z,99171.75
2023-04-04T07:49:44.436Z,99162.38
2023-04-04T07:52:11.027Z,99166.63
2023-04-04T07:54:40.315Z,99170.94
2023-04-04T07:57:09.808Z,99173.41
2023-04-04T07:59:36.887Z,99176.72
2023-04-04T08:02:03.506Z,99174.81
2023-04-04T08:04:30.234Z,99168.66
2023-04-04T08:06:56.865Z,99173.75
2023-04-04T08:09:23.430Z,99178.16
2023-04-04T08:11:50.135Z,99179.88
2023-04-04T08:14:17.275Z,99179.09
2023-04-04T08:16:43.820Z,99180.09
2023-04-04T08:19:10.379Z,99178.28
2023-04-04T08:21:37.305Z,99171.97
2023-04-04T08:24:03.916Z,99176.06
2023-04-04T08:26:30.731Z,99172.47
2023-04-04T08:28:57.267Z,99173.16
2023-04-04T08:31:24.153Z,99177.94
2023-04-04T08:33:50.847Z,99177.47
2023-04-04T08:36:17.884Z,99173.53
2023-04-04T08:38:44.762Z,99174.94
2023-04-04T08:41:12.137Z,99172.94
2023-04-04T08:43:41.224Z,99171.81
2023-04-04T08:46:10.064Z,99183.56
2023-04-04T08:48:39.285Z,99175.25
2023-04-04T08:51:08.938Z,99172.22
2023-04-04T08:53:37.188Z,99178.09
2023-04-04T08:56:04.561Z,99178.63
2023-04-04T08:58:31.204Z,99179.06
2023-04-04T09:00:57.996Z,99187.44
2023-04-04T09:03:31.044Z,99177.41
2023-04-04T09:05:57.933Z,99183.41
2023-04-04T09:08:24.956Z,99188.53
2023-04-04T09:10:52.410Z,99191.13
2023-04-04T09:13:19.320Z,99196.44
2023-04-04T09:15:50.189Z,99196.56
2023-04-04T09:18:16.981Z,99207.16
2023-04-04T09:20:44.523Z,99196.69
2023-04-04T09:23:13.159Z,99204.44
2023-04-04T09:26:02.383Z,99207.78
2023-04-04T09:28:30.380Z,99199.63
2023-04-04T09:30:57.054Z,99203.16
2023-04-04T09:33:26.812Z,99204.19
2023-04-04T09:36:03.568Z,99209.59
2023-04-04T09:38:31.433Z,99206.16
2023-04-04T09:40:58.298Z,99207.78
2023-04-04T09:43:25.274Z,99207.75
2023-04-04T09:45:52.330Z,99212.75
2023-04-04T09:48:28.923Z,99194.25
2023-04-04T09:50:58.243Z,99204.00
2023-04-04T09:53:25.040Z,99176.31
2023-04-04T09:55:52.320Z,99211.28
2023-04-04T09:58:23.755Z,99164.66
2023-04-04T10:00:52.565Z,99199.19
2023-04-04T10:03:21.910Z,99224.88
2023-04-04T10:05:50.127Z,99221.38
2023-04-04T10:08:22.207Z,99208.94
2023-04-04T10:11:02.616Z,99207.56
2023-04-04T10:13:37.165Z,99211.09
2023-04-04T10:16:04.461Z,99208.44
2023-04-04T10:18:32.451Z,99187.53
2023-04-04T10:21:08.164Z,99068.06
2023-04-04T10:23:42.361Z,99041.44
2023-04-04T10:26:08.961Z,99137.59
2023-04-04T10:28:35.749Z,99245.06
2023-04-04T10:31:20.448Z,99136.44
2023-04-04T10:34:04.732Z,99173.38
2023-04-04T10:36:38.690Z,99099.94
2023-04-04T10:39:12.851Z,99247.94
2023-04-04T10:41:40.259Z,99235.53
2023-04-04T10:44:30.469Z,99214.44
2023-04-04T10:46:59.017Z,99226.22
2023-04-04T10:49:25.919Z,99232.75
2023-04-04T10:51:56.767Z,99225.53
2023-04-04T10:54:24.147Z,99222.25
2023-04-04T10:56:51.131Z,99221.47
2023-04-04T10:59:18.268Z,99217.19
2023-04-04T11:01:55.205Z,99226.03
2023-04-04T11:04:28.682Z,99222.41
2023-04-04T11:07:07.964Z,99216.25
2023-04-04T11:09:50.685Z,99217.13
2023-04-04T11:12:22.088Z,99224.41
2023-04-04T11:15:01.060Z,99198.78
2023-04-04T11:17:43.482Z,99214.97
2023-04-04T11:20:10.812Z,99227.38
2023-04-04T11:22:37.941Z,99222.09
2023-04-04T11:25:23.418Z,99215.78
2023-04-04T11:27:51.650Z,99202.38
2023-04-04T11:30:18.327Z,99061.69
2023-04-04T11:32:59.762Z,99215.41
2023-04-04T11:35:33.111Z,99219.47
2023-04-04T11:38:01.088Z,99226.59
2023-04-04T11:40:37.593Z,99197.25
2023-04-04T11:43:07.567Z,99182.63
2023-04-04T11:45:35.040Z,99213.06
2023-04-04T11:48:03.369Z,99147.31
2023-04-04T11:50:34.828Z,99148.38
2023-04-04T11:53:05.147Z,99217.88
2023-04-04T11:55:32.186Z,99232.38
2023-04-04T11:58:05.699Z,99217.47
2023-04-04T12:00:35.051Z,99228.69
2023-04-04T12:03:01.935Z,99212.22
2023-04-04T12:05:30.822Z,99227.00
2023-04-04T12:07:57.921Z,99225.22
2023-04-04T12:10:24.709Z,99224.94
2023-04-04T12:12:54.729Z,99215.97
2023-04-04T12:15:22.075Z,99220.91
2023-04-04T12:17:49.193Z,99190.38
2023-04-04T12:20:16.049Z,99152.97
2023-04-04T12:22:45.677Z,99233.81
2023-04-04T12:25:12.364Z,99231.72
2023-04-04T12:27:40.647Z,99230.47
2023-04-04T12:30:15.270Z,99234.41
2023-04-04T12:32:45.539Z,99239.13
2023-04-04T12:35:13.430Z,99104.66
2023-04-04T12:37:42.939Z,99235.69
2023-04-04T12:40:10.739Z,99199.00
2023-04-04T12:42:37.316Z,99232.06
2023-04-04T12:45:05.393Z,99105.13
2023-04-04T12:47:32.394Z,99244.81
2023-04-04T12:49:59.045Z,99260.78
2023-04-04T12:52:32.146Z,99228.75
2023-04-04T12:55:08.235Z,99262.88
2023-04-04T12:57:35.974Z,99250.81
2023-04-04T13:00:04.610Z,99231.34
2023-04-04T13:02:31.254Z,99241.50
2023-04-04T13:04:58.574Z,99236.19
2023-04-04T13:07:27.546Z,99249.88
2023-04-04T13:09:55.437Z,99238.19
2023-04-04T13:12:22.016Z,99230.13
2023-04-04T13:15:01.535Z,99232.38
2023-04-04T13:17:48.449Z,99240.00
2023-04-04T13:20:16.895Z,99229.53
2023-04-04T13:22:43.800Z,99181.81
2023-04-04T13:25:11.235Z,99211.56
2023-04-04T13:27:38.419Z,99285.81
2023-04-04T13:30:06.563Z,99261.53
2023-04-04T13:32:33.826Z,99252.09
2023-04-04T13:35:00.420Z,99247.88
2023-04-04T13:37:28.072Z,99275.13
2023-04-04T13:39:54.648Z,99027.50
2023-04-04T13:42:23.303Z,99189.44
2023-04-04T13:44:49.833Z,99259.19
2023-04-04T13:47:16.533Z,99261.00
2023-04-04T13:49:43.077Z,99114.16
2023-04-04T13:52:09.627Z,99238.19
2023-04-04T13:54:36.319Z,99215.06
2023-04-04T13:57:02.931Z,99317.06
2023-04-04T13:59:29.651Z,99238.78
2023-04-04T14:01:56.476Z,99197.97
2023-04-04T14:04:24.315Z,99268.59
2023-04-04T14:06:51.254Z,99280.06
2023-04-04T14:09:17.795Z,99278.41
2023-04-04T14:11:46.451Z,99268.88
2023-04-04T14:14:13.147Z,99298.41
2023-04-04T14:16:39.716Z,99283.47
2023-04-04T14:19:07.036Z,99264.22
2023-04-04T14:21:33.623Z,99277.25
2023-04-04T14:24:00.298Z,99279.03
2023-04-04T14:26:26.859Z,99279.94
2023-04-04T14:28:53.467Z,99274.72
2023-04-04T14:31:20.082Z,99264.28
2023-04-04T14:33:46.699Z,99274.72
2023-04-04T14:36:13.275Z,99269.66
2023-04-04T14:38:39.824Z,99274.16
2023-04-04T14:41:06.542Z,99292.38
2023-04-04T14:43:33.140Z,99274.91
2023-04-04T14:45:59.733Z,99295.78
2023-04-04T14:48:26.534Z,99280.22
2023-04-04T14:50:53.191Z,99243.94
2023-04-04T14:53:19.733Z,99256.38
2023-04-04T14:55:46.472Z,99282.59
2023-04-04T14:58:13.188Z,99335.00
2023-04-04T15:00:39.807Z,99276.00
2023-04-04T15:03:08.434Z,99317.81
2023-04-04T15:05:35.101Z,99331.63
2023-04-04T15:08:01.679Z,99289.09
2023-04-04T15:10:28.238Z,99308.47
2023-04-04T15:12:55.321Z,99313.78
2023-04-04T15:15:23.749Z,99314.06
2023-04-04T15:17:51.328Z,99328.41
2023-04-04T15:20:18.311Z,99315.47
2023-04-04T15:22:44.938Z,99320.06
2023-04-04T15:25:11.598Z,99321.19
2023-04-04T15:27:39.233Z,99335.25
2023-04-04T15:30:06.163Z,99323.09
2023-04-04T15:32:32.826Z,99356.41
2023-04-04T15:34:59.432Z,99333.19
2023-04-04T15:37:26.561Z,99348.00
2023-04-04T15:39:54.240Z,99330.72
2023-04-04T15:42:21.183Z,99334.38
2023-04-04T15:44:47.764Z,99334.53
2023-04-04T15:47:15.754Z,99341.53
2023-04-04T15:49:42.304Z,99330.19
2023-04-04T15:52:08.932Z,99341.00
2023-04-04T15:54:35.616Z,99336.75
2023-04-04T15:57:02.152Z,99341.16
2023-04-04T15:59:31.819Z,99331.63
2023-04-04T16:01:58.722Z,99341.19
2023-04-04T16:04:25.547Z,99346.41
2023-04-04T16:06:52.182Z,99348.19
2023-04-04T16:09:18.700Z,99351.66
2023-04-04T16:11:45.298Z,99361.19
2023-04-04T16:14:12.813Z,99359.47
2023-04-04T16:16:40.724Z,99359.47
2023-04-04T16:19:07.287Z,99359.59
2023-04-04T16:21:34.022Z,99364.84
2023-04-04T16:24:00.646Z,99367.44
2023-04-04T16:26:27.191Z,99370.09
2023-04-04T16:28:53.759Z,99377.06
2023-04-04T16:31:20.378Z,99378.91
2023-04-04T16:33:47.718Z,99379.00
2023-04-04T16:36:14.319Z,99381.66
2023-04-04T16:38:41.140Z,99386.03
2023-04-04T16:41:07.726Z,99388.66
2023-04-04T16:43:34.328Z,99387.81
2023-04-04T16:46:00.910Z,99399.91
2023-04-04T16:48:27.494Z,99393.84
2023-04-04T16:50:54.816Z,99398.16
2023-04-04T16:53:21.362Z,99398.16
2023-04-04T16:55:47.998Z,99389.50
2023-04-04T16:58:14.578Z,99394.78
2023-04-04T17:00:41.963Z,99393.91
2023-04-04T17:03:08.688Z,99394.78
2023-04-04T17:05:35.362Z,99403.44
2023-04-04T17:08:02.043Z,99401.75
2023-04-04T17:10:28.626Z,99397.50
2023-04-04T17:12:55.243Z,99405.31
2023-04-04T17:15:21.947Z,99407.03
2023-04-04T17:17:48.597Z,99402.75
2023-04-04T17:20:18.332Z,99407.09
2023-04-04T17:22:45.491Z,99405.38
2023-04-04T17:25:12.261Z,99405.38
2023-04-04T17:27:39.662Z,99401.97
2023-04-04T17:30:08.357Z,99403.75
2023-04-04T17:32:34.994Z,99409.00
2023-04-04T17:35:02.182Z,99407.28
2023-04-04T17:37:31.002Z,99409.78
2023-04-04T17:39:58.553Z,99404.66
2023-04-04T17:42:25.124Z,99406.38
2023-04-04T17:44:51.885Z,99409.06
2023-04-04T17:47:18.484Z,99407.38
2023-04-04T17:49:46.015Z,99405.66
2023-04-04T17:52:18.823Z,99408.28
2023-04-04T17:54:47.900Z,99414.34
2023-04-04T17:57:15.053Z,99416.94
2023-04-04T17:59:42.084Z,99408.28
2023-04-04T18:02:08.644Z,99409.13
2023-04-04T18:04:35.245Z,99416.09
2023-04-04T18:07:02.002Z,99411.81
2023-04-04T18:09:29.106Z,99412.72
2023-04-04T18:11:55.822Z,99418.84
2023-04-04T18:14:22.865Z,99416.34
2023-04-04T18:16:49.735Z,99409.44
2023-04-04T18:19:16.389Z,99414.72
2023-04-04T18:21:43.308Z,99414.75
2023-04-04T18:24:11.798Z,99419.97
2023-04-04T18:26:38.850Z,99421.75
2023-04-04T18:29:05.458Z,99420.09
2023-04-04T18:31:32.213Z,99419.31
2023-04-04T18:33:58.869Z,99412.44
2023-04-04T18:36:26.611Z,99418.56
2023-04-04T18:38:53.663Z,99420.38
2023-04-04T18:41:20.440Z,99415.25
2023-04-04T18:43:47.032Z,99410.97
2023-04-04T18:46:13.802Z,99416.22
2023-04-04T18:48:41.512Z,99421.47
2023-04-04T18:51:08.545Z,99414.63
2023-04-04T18:53:35.104Z,99412.09
2023-04-04T18:56:01.707Z,99417.31
2023-04-04T18:58:28.349Z,99412.22
2023-04-04T19:00:56.036Z,99418.25
2023-04-04T19:03:23.157Z,99415.69
2023-04-04T19:05:50.028Z,99421.81
2023-04-04T19:08:17.542Z,99412.34
2023-04-04T19:10:45.171Z,99421.00
2023-04-04T19:13:11.738Z,99422.75
2023-04-04T19:15:38.542Z,99421.03
2023-04-04T19:18:05.492Z,99421.06
2023-04-04T19:20:32.296Z,99417.69
2023-04-04T19:22:58.850Z,99431.50
2023-04-04T19:25:25.705Z,99425.50
2023-04-04T19:27:52.492Z,99427.25
2023-04-04T19:30:39.416Z,99435.06
2023-04-04T19:33:10.289Z,99436.88
2023-04-04T19:35:55.665Z,99430.81
2023-04-04T19:38:23.002Z,99435.16
2023-04-04T19:40:50.879Z,99435.19
2023-04-04T19:43:19.714Z,99436.06
2023-04-04T19:45:50.449Z,99443.00
2023-04-04T19:48:35.929Z,99444.72
2023-04-04T19:51:05.947Z,99445.63
2023-04-04T19:53:32.668Z,99449.09
2023-04-04T19:55:59.440Z,99446.50
2023-04-04T19:58:26.038Z,99453.44
2023-04-04T20:00:52.568Z,99448.25
2023-04-04T20:03:34.120Z,99451.69
2023-04-04T20:06:09.805Z,99454.28
2023-04-04T20:08:41.446Z,99459.47
2023-04-04T20:11:08.088Z,99456.03
2023-04-04T20:13:36.068Z,99453.50
2023-04-04T20:16:04.020Z,99456.03
2023-04-04T20:18:32.206Z,99457.78
2023-04-04T20:21:09.052Z,99455.19
2023-04-04T20:23:46.829Z,99460.41
2023-04-04T20:26:33.336Z,99460.41
2023-04-04T20:28:59.914Z,99460.38
2023-04-04T20:31:26.625Z,99464.72
2023-04-04T20:33:53.214Z,99459.59
2023-04-04T20:36:20.298Z,99469.97
2023-04-04T20:38:47.211Z,99469.09
2023-04-04T20:41:17.137Z,99461.34
2023-04-04T20:43:49.289Z,99463.09
2023-04-04T20:46:16.090Z,99464.84
2023-04-04T20:48:42.782Z,99464.84
2023-04-04T20:51:23.864Z,99461.41
2023-04-04T20:53:51.452Z,99467.47
2023-04-04T20:56:36.661Z,99464.91
2023-04-04T20:59:06.287Z,99460.63
2023-04-04T21:01:33.256Z,99470.13
2023-04-04T21:03:59.893Z,99460.63
2023-04-04T21:06:28.725Z,99460.63
2023-04-04T21:08:55.610Z,99458.03
2023-04-04T21:11:24.307Z,99464.94
2023-04-04T21:13:50.970Z,99467.53
2023-04-04T21:16:19.156Z,99464.94
2023-04-04T21:18:46.306Z,99471.88
2023-04-04T21:21:16.815Z,99466.72
2023-04-04T21:24:01.662Z,99471.91
2023-04-04T21:26:38.325Z,99466.75
2023-04-04T21:29:08.723Z,99466.78
2023-04-04T21:31:36.907Z,99470.22
2023-04-04T21:34:11.063Z,99466.78
2023-04-04T21:36:37.761Z,99465.06
2023-04-04T21:39:10.977Z,99467.66
2023-04-04T21:41:37.596Z,99472.84
2023-04-04T21:44:05.345Z,99473.72
2023-04-04T21:46:33.357Z,99471.13
2023-04-04T21:49:00.193Z,99475.47
2023-04-04T21:51:27.162Z,99473.72
2023-04-04T21:53:54.057Z,99472.88
2023-04-04T21:56:21.361Z,99474.59
2023-04-04T21:58:47.999Z,99478.91
2023-04-04T22:01:14.587Z,99475.47
2023-04-04T22:03:41.329Z,99476.31
2023-04-04T22:06:07.995Z,99482.38
2023-04-04T22:08:34.726Z,99482.38
2023-04-04T22:11:03.176Z,99483.25
2023-04-04T22:13:33.497Z,99485.84
2023-04-04T22:16:01.180Z,99480.66
2023-04-04T22:18:33.140Z,99489.28
2023-04-04T22:21:03.642Z,99490.13
2023-04-04T22:23:35.264Z,99491.88
2023-04-04T22:26:03.120Z,99485.84
2023-04-04T22:28:29.691Z,99491.88
2023-04-04T22:30:56.232Z,99491.00
2023-04-04T22:33:22.741Z,99497.06
2023-04-04T22:35:49.313Z,99503.13
2023-04-04T22:38:15.832Z,99498.78
2023-04-04T22:40:42.769Z,99504.84
2023-04-04T22:43:09.660Z,99502.25
2023-04-04T22:45:36.522Z,99510.03
2023-04-04T22:48:03.653Z,99509.97
2023-04-04T22:50:30.282Z,99516.03
2023-04-04T22:52:58.682Z,99516.00
2023-04-04T22:55:26.244Z,99521.19
2023-04-04T22:57:52.860Z,99514.28
2023-04-04T23:00:20.178Z,99517.72
2023-04-04T23:02:47.779Z,99515.19
2023-04-04T23:05:16.189Z,99518.59
2023-04-04T23:07:43.549Z,99517.75
2023-04-04T23:10:11.600Z,99520.31
2023-04-04T23:12:38.724Z,99520.31
2023-04-04T23:15:06.199Z,99523.78
2023-04-04T23:17:33.453Z,99523.75
2023-04-04T23:20:00.584Z,99520.31
2023-04-04T23:22:27.824Z,99523.75
2023-04-04T23:24:54.419Z,99522.91
2023-04-04T23:27:21.197Z,99520.31
2023-04-04T23:29:50.639Z,99522.03
2023-04-04T23:32:17.154Z,99527.19
2023-04-04T23:34:43.763Z,99525.47
2023-04-04T23:37:10.299Z,99524.59
2023-04-04T23:39:36.844Z,99522.88
2023-04-04T23:42:04.396Z,99522.00
2023-04-04T23:44:31.060Z,99522.88
2023-04-04T23:46:58.972Z,99525.47
2023-04-04T23:49:25.602Z,99522.00
2023-04-04T23:51:52.145Z,99520.25
2023-04-04T23:54:18.996Z,99517.69
2023-04-04T23:56:45.752Z,99521.97
2023-04-04T23:59:12.339Z,99518.53
